Time;durP1;ratioP1;P1;durP2;ratioP2;P2;SDS_P1;SDS_P2;PMS_P1;PMS_P2;Temp;Humidity;BMP_temperature;BMP_pressure;BME280_temperature;BME280_humidity;BME280_pressure;Samples;Min_cycle;Max_cycle;Signal;HPM_P1;HPM_P2
2023/06/02 00:01:28;;;;;;;22.73;7.25;;;16.90;99.90;;;;;;4969717;28;20207;-74
2023/06/02 00:04:01;;;;;;;21.77;5.93;;;17.10;99.90;;;;;;4974931;28;20246;-74
2023/06/02 00:06:33;;;;;;;26.92;6.53;;;17.20;99.90;;;;;;4975244;28;20578;-74
2023/06/02 00:09:07;;;;;;;23.92;6.15;;;17.30;99.90;;;;;;4975435;28;20200;-74
2023/06/02 00:11:39;;;;;;;24.65;6.20;;;17.40;99.90;;;;;;4975820;28;20656;-74
2023/06/02 00:14:10;;;;;;;19.10;4.93;;;17.40;99.90;;;;;;4975912;28;20283;-73
2023/06/02 00:16:47;;;;;;;21.42;4.95;;;17.50;99.90;;;;;;4974726;28;20224;-73
2023/06/02 00:19:19;;;;;;;18.88;5.25;;;17.60;99.90;;;;;;4994524;28;20222;-73
2023/06/02 00:21:51;;;;;;;20.55;5.20;;;17.70;99.90;;;;;;4976856;28;20208;-73
2023/06/02 00:24:24;;;;;;;23.92;5.15;;;17.70;99.90;;;;;;4974354;28;20200;-73
2023/06/02 00:26:55;;;;;;;16.13;4.65;;;17.80;99.90;;;;;;4977935;28;20656;-74
2023/06/02 00:29:27;;;;;;;19.27;4.43;;;17.90;99.90;;;;;;4981616;28;20200;-73
2023/06/02 00:31:58;;;;;;;26.42;5.47;;;17.90;99.90;;;;;;4977267;28;20188;-74
2023/06/02 00:34:29;;;;;;;22.58;6.07;;;17.90;99.90;;;;;;4977012;28;20711;-73
2023/06/02 00:37:00;;;;;;;23.35;4.78;;;17.90;99.90;;;;;;4975390;28;20202;-73
2023/06/02 00:39:33;;;;;;;26.70;5.38;;;18.00;99.90;;;;;;4974747;28;20208;-73
2023/06/02 00:42:05;;;;;;;14.63;4.25;;;18.10;99.90;;;;;;4974599;28;20626;-72
2023/06/02 00:44:37;;;;;;;22.48;5.00;;;18.10;99.90;;;;;;4976747;28;20276;-74
2023/06/02 00:47:08;;;;;;;27.20;5.40;;;18.20;99.90;;;;;;4974166;28;20201;-74
2023/06/02 00:49:40;;;;;;;20.95;5.05;;;18.10;99.90;;;;;;4976108;28;20212;-74
2023/06/02 00:52:11;;;;;;;16.13;4.15;;;18.20;99.90;;;;;;4971347;28;20207;-74
2023/06/02 00:54:47;;;;;;;18.15;4.90;;;18.30;99.90;;;;;;4968182;28;20197;-72
2023/06/02 00:57:19;;;;;;;25.77;5.70;;;18.40;99.90;;;;;;4973319;28;20220;-74
2023/06/02 00:59:50;;;;;;;24.65;4.43;;;18.50;99.90;;;;;;4976213;28;20721;-73
2023/06/02 01:02:22;;;;;;;17.45;4.32;;;18.40;99.90;;;;;;4976708;28;20196;-73
2023/06/02 01:04:57;;;;;;;16.85;4.78;;;18.40;99.90;;;;;;4976903;28;20207;-73
2023/06/02 01:07:30;;;;;;;22.80;4.70;;;18.50;99.90;;;;;;4976641;28;20626;-74
2023/06/02 01:10:04;;;;;;;24.55;5.00;;;18.60;99.90;;;;;;4976635;28;20196;-74
2023/06/02 01:12:36;;;;;;;17.17;4.20;;;18.70;99.90;;;;;;4976325;28;20191;-73
2023/06/02 01:15:08;;;;;;;21.10;4.85;;;18.80;99.90;;;;;;4976364;28;20226;-73
2023/06/02 01:17:41;;;;;;;23.45;5.07;;;18.90;99.90;;;;;;4976145;28;20192;-73
2023/06/02 01:20:14;;;;;;;13.60;4.03;;;18.90;99.90;;;;;;4976416;28;20223;-73
2023/06/02 01:22:51;;;;;;;22.27;4.22;;;19.00;99.90;;;;;;4976317;28;20196;-73
2023/06/02 01:25:25;;;;;;;16.92;3.63;;;19.10;99.90;;;;;;4976214;28;20584;-73
2023/06/02 01:27:59;;;;;;;17.70;4.95;;;19.20;99.90;;;;;;4976080;28;20202;-73
2023/06/02 01:30:31;;;;;;;18.23;3.88;;;19.30;99.90;;;;;;4976135;28;20603;-73
2023/06/02 01:33:12;;;;;;;15.95;3.10;;;19.30;99.90;;;;;;4976085;28;20189;-73
2023/06/02 01:35:47;;;;;;;13.73;3.05;;;19.40;99.90;;;;;;4976027;28;20223;-73
2023/06/02 01:38:20;;;;;;;14.25;3.17;;;19.50;99.90;;;;;;4976071;28;20637;-73
2023/06/02 01:40:55;;;;;;;18.90;3.55;;;19.60;99.90;;;;;;4975706;28;20199;-73
2023/06/02 01:43:26;;;;;;;13.90;2.97;;;19.70;99.90;;;;;;4975674;28;20188;-73
2023/06/02 01:45:59;;;;;;;17.52;3.22;;;19.90;99.90;;;;;;4975532;28;20200;-73
2023/06/02 01:48:31;;;;;;;18.33;3.50;;;20.00;99.90;;;;;;4974429;28;20203;-73
2023/06/02 01:51:02;;;;;;;13.10;3.25;;;20.10;99.90;;;;;;4975724;28;20215;-73
2023/06/02 01:53:33;;;;;;;17.83;3.40;;;20.10;99.90;;;;;;4975887;28;20204;-73
2023/06/02 01:56:07;;;;;;;16.27;2.92;;;20.10;99.90;;;;;;4975413;28;20216;-73
2023/06/02 01:58:38;;;;;;;13.65;3.40;;;20.20;99.90;;;;;;4975507;28;20212;-72
2023/06/02 02:01:09;;;;;;;18.98;3.10;;;20.20;99.90;;;;;;4975429;28;20234;-73
2023/06/02 02:03:40;;;;;;;17.20;3.05;;;20.20;99.90;;;;;;4975391;28;20630;-73
2023/06/02 02:06:11;;;;;;;11.82;2.85;;;20.20;99.90;;;;;;4975579;28;20196;-73
2023/06/02 02:08:42;;;;;;;12.32;2.80;;;20.20;99.90;;;;;;4975391;28;20660;-73
2023/06/02 02:11:15;;;;;;;15.43;2.97;;;20.30;99.90;;;;;;4975233;28;20590;-73
2023/06/02 02:13:46;;;;;;;15.48;3.22;;;20.40;99.90;;;;;;4975795;28;20198;-73
2023/06/02 02:16:17;;;;;;;20.42;3.00;;;20.40;99.90;;;;;;4975262;28;20231;-74
2023/06/02 02:18:52;;;;;;;15.07;2.65;;;20.40;99.90;;;;;;4975550;28;20207;-73
2023/06/02 02:21:23;;;;;;;13.18;2.78;;;20.40;99.90;;;;;;4975236;28;20234;-73
2023/06/02 02:23:54;;;;;;;14.70;2.90;;;20.20;99.90;;;;;;4975075;28;20194;-74
2023/06/02 02:26:28;;;;;;;15.30;3.33;;;20.10;99.90;;;;;;4974951;28;20196;-73
2023/06/02 02:28:59;;;;;;;13.38;3.20;;;20.00;99.90;;;;;;4975732;28;20192;-73
2023/06/02 02:31:31;;;;;;;15.80;3.25;;;19.90;99.90;;;;;;4975046;28;20200;-73
2023/06/02 02:34:02;;;;;;;12.18;2.80;;;19.80;99.90;;;;;;4975010;28;20599;-73
2023/06/02 02:36:33;;;;;;;10.73;2.70;;;19.80;99.90;;;;;;4974869;28;20311;-73
2023/06/02 02:39:05;;;;;;;11.02;2.70;;;19.90;99.90;;;;;;4974657;28;20197;-73
2023/06/02 02:41:38;;;;;;;14.38;3.20;;;20.10;99.90;;;;;;4974946;28;20192;-73
2023/06/02 02:44:09;;;;;;;16.67;2.67;;;20.20;99.90;;;;;;4974802;28;20200;-74
2023/06/02 02:46:40;;;;;;;18.27;3.40;;;20.40;99.90;;;;;;4975064;28;20212;-74
2023/06/02 02:49:11;;;;;;;11.90;2.63;;;20.50;99.90;;;;;;4974853;28;20196;-74
2023/06/02 02:51:42;;;;;;;14.13;2.88;;;20.70;99.90;;;;;;4974753;28;20192;-74
2023/06/02 02:54:14;;;;;;;17.02;3.30;;;20.80;99.90;;;;;;4974485;28;20196;-74
2023/06/02 02:56:47;;;;;;;15.05;2.70;;;20.80;99.90;;;;;;4974541;28;20224;-73
2023/06/02 02:59:18;;;;;;;10.30;2.60;;;20.80;99.90;;;;;;4974092;28;20261;-74
2023/06/02 03:01:49;;;;;;;9.60;2.60;;;20.90;99.90;;;;;;4974611;28;20199;-74
2023/06/02 03:04:22;;;;;;;12.00;3.00;;;21.00;99.90;;;;;;4974519;28;20192;-74
2023/06/02 03:06:54;;;;;;;9.30;2.60;;;21.10;99.90;;;;;;4974582;28;20200;-74
2023/06/02 03:09:25;;;;;;;10.80;2.70;;;21.10;99.90;;;;;;4974438;28;20243;-74
2023/06/02 03:11:59;;;;;;;13.98;3.20;;;21.10;99.90;;;;;;4974892;28;20188;-73
2023/06/02 03:14:30;;;;;;;20.77;3.38;;;21.10;99.90;;;;;;4974471;28;20243;-75
2023/06/02 03:17:01;;;;;;;18.38;4.20;;;21.00;99.90;;;;;;4974442;28;20220;-74
2023/06/02 03:19:34;;;;;;;14.88;3.55;;;21.00;99.90;;;;;;4974483;28;20196;-74
2023/06/02 03:22:05;;;;;;;16.48;3.05;;;21.10;99.90;;;;;;4974513;28;20188;-75
2023/06/02 03:24:36;;;;;;;14.60;3.20;;;21.10;99.90;;;;;;4974192;28;20660;-75
2023/06/02 03:27:13;;;;;;;16.75;3.10;;;21.00;99.90;;;;;;4974501;28;20580;-74
2023/06/02 03:29:44;;;;;;;14.70;3.13;;;21.00;99.90;;;;;;4974427;28;20242;-74
2023/06/02 03:32:15;;;;;;;14.88;3.00;;;20.80;99.90;;;;;;4974993;28;20192;-74
2023/06/02 03:34:46;;;;;;;16.75;3.20;;;20.70;99.90;;;;;;4974287;28;20193;-74
2023/06/02 03:37:17;;;;;;;18.38;3.85;;;20.40;99.90;;;;;;4974144;28;20560;-74
2023/06/02 03:39:48;;;;;;;22.63;3.67;;;20.30;99.90;;;;;;4974306;28;20199;-74
2023/06/02 03:42:22;;;;;;;14.25;3.00;;;20.10;99.90;;;;;;4974329;28;20197;-74
2023/06/02 03:44:53;;;;;;;12.73;2.60;;;20.20;99.90;;;;;;4974207;28;20246;-74
2023/06/02 03:47:24;;;;;;;17.77;2.95;;;20.30;99.90;;;;;;4974226;28;20571;-74
2023/06/02 03:49:55;;;;;;;15.70;3.60;;;20.40;99.90;;;;;;4974236;28;20199;-74
2023/06/02 03:52:26;;;;;;;13.07;2.72;;;20.50;99.90;;;;;;4973964;28;20197;-74
2023/06/02 03:54:58;;;;;;;14.90;2.72;;;20.60;99.90;;;;;;4974077;28;20219;-74
2023/06/02 03:57:32;;;;;;;15.02;2.70;;;20.60;99.90;;;;;;4974079;28;20649;-74
2023/06/02 04:00:04;;;;;;;14.93;3.20;;;20.70;99.90;;;;;;4973870;28;20703;-74
2023/06/02 04:02:35;;;;;;;21.00;3.97;;;20.70;99.90;;;;;;4974092;28;20196;-74
2023/06/02 04:05:07;;;;;;;18.10;3.13;;;20.60;99.90;;;;;;4974018;28;20192;-74
2023/06/02 04:07:38;;;;;;;19.90;3.15;;;20.50;99.90;;;;;;4974106;28;20663;-74
2023/06/02 04:10:10;;;;;;;21.70;3.25;;;20.40;99.90;;;;;;4974291;28;20565;-74
2023/06/02 04:12:43;;;;;;;13.20;2.83;;;20.30;99.90;;;;;;4977628;28;20199;-74
2023/06/02 04:15:14;;;;;;;18.00;2.97;;;20.20;99.90;;;;;;4977859;28;20200;-74
2023/06/02 04:17:45;;;;;;;16.10;2.63;;;20.20;99.90;;;;;;4977443;28;20219;-74
2023/06/02 04:20:16;;;;;;;15.55;2.75;;;20.10;99.90;;;;;;4977479;28;20204;-73
2023/06/02 04:22:48;;;;;;;15.43;2.97;;;20.10;99.90;;;;;;4977145;28;20203;-74
2023/06/02 04:25:19;;;;;;;19.15;3.17;;;20.00;99.90;;;;;;4977379;28;20192;-73
2023/06/02 04:27:52;;;;;;;16.75;3.10;;;19.90;99.90;;;;;;4977418;28;20200;-74
2023/06/02 04:30:23;;;;;;;16.38;3.08;;;19.90;99.90;;;;;;4977374;28;20193;-74
2023/06/02 04:32:54;;;;;;;15.23;3.17;;;19.80;99.90;;;;;;4977210;28;20188;-74
2023/06/02 04:35:25;;;;;;;11.55;2.58;;;19.70;99.90;;;;;;4977034;28;20652;-74
2023/06/02 04:37:56;;;;;;;13.13;3.20;;;19.70;99.90;;;;;;4977107;28;20220;-74
2023/06/02 04:40:27;;;;;;;13.55;2.80;;;19.60;99.90;;;;;;4977177;28;20196;-74
2023/06/02 04:43:01;;;;;;;11.35;2.90;;;19.50;99.90;;;;;;4977072;28;20189;-74
2023/06/02 04:45:32;;;;;;;15.35;2.95;;;19.40;99.90;;;;;;4977063;28;20534;-74
2023/06/02 04:48:03;;;;;;;15.73;2.72;;;19.40;99.90;;;;;;4977348;28;20188;-74
2023/06/02 04:50:35;;;;;;;18.73;3.03;;;19.40;99.90;;;;;;4976770;28;20193;-74
2023/06/02 04:53:06;;;;;;;17.02;2.85;;;19.40;99.90;;;;;;4976815;28;20276;-74
2023/06/02 04:55:37;;;;;;;13.25;2.55;;;19.40;99.90;;;;;;4976980;28;20198;-74
2023/06/02 04:58:10;;;;;;;18.35;3.33;;;19.40;99.90;;;;;;4976826;28;20593;-73
2023/06/02 05:00:41;;;;;;;15.00;2.85;;;19.50;99.90;;;;;;4976828;28;20247;-73
2023/06/02 05:03:12;;;;;;;16.55;2.92;;;19.60;99.90;;;;;;4976821;28;20197;-73
2023/06/02 05:05:43;;;;;;;19.05;3.08;;;19.70;99.90;;;;;;4976984;28;20601;-73
2023/06/02 05:08:14;;;;;;;15.55;2.90;;;19.70;99.90;;;;;;4976627;28;20207;-73
2023/06/02 05:10:45;;;;;;;14.80;2.80;;;19.80;99.90;;;;;;4976631;28;20196;-73
2023/06/02 05:13:20;;;;;;;10.32;2.65;;;19.70;99.90;;;;;;4976474;28;20640;-74
2023/06/02 05:15:51;;;;;;;13.82;2.88;;;19.70;99.90;;;;;;4976504;28;20636;-75
2023/06/02 05:18:22;;;;;;;17.60;3.63;;;19.70;99.90;;;;;;4976439;28;20608;-74
2023/06/02 05:20:53;;;;;;;20.23;3.53;;;19.70;99.90;;;;;;4976139;28;20188;-74
2023/06/02 05:23:24;;;;;;;12.75;2.90;;;19.70;99.90;;;;;;4976365;28;20188;-74
2023/06/02 05:25:56;;;;;;;14.27;2.45;;;19.70;99.90;;;;;;4976304;28;20200;-74
2023/06/02 05:28:29;;;;;;;12.80;3.00;;;19.60;99.90;;;;;;4976240;28;20283;-74
2023/06/02 05:31:00;;;;;;;17.80;3.03;;;19.60;99.90;;;;;;4976299;28;20215;-74
2023/06/02 05:33:31;;;;;;;14.10;3.10;;;19.50;99.90;;;;;;4975969;28;20199;-74
2023/06/02 05:36:02;;;;;;;14.35;3.20;;;19.50;99.90;;;;;;4976171;28;20202;-74
2023/06/02 05:38:33;;;;;;;16.95;2.58;;;19.50;99.90;;;;;;4976119;28;20760;-74
2023/06/02 05:41:06;;;;;;;12.07;2.70;;;19.50;99.90;;;;;;4976050;28;20192;-74
2023/06/02 05:43:39;;;;;;;12.93;2.65;;;19.40;99.90;;;;;;4976020;28;20192;-74
2023/06/02 05:46:10;;;;;;;15.48;3.00;;;19.40;99.90;;;;;;4975948;28;20192;-74
2023/06/02 05:48:42;;;;;;;12.45;3.10;;;19.30;99.90;;;;;;4976081;28;20580;-74
2023/06/02 05:51:13;;;;;;;17.30;3.00;;;19.30;99.90;;;;;;4975855;28;20640;-74
2023/06/02 05:53:44;;;;;;;15.75;2.72;;;19.20;99.90;;;;;;4975761;28;20591;-74
2023/06/02 05:56:15;;;;;;;19.88;3.05;;;19.20;99.90;;;;;;4976047;28;20195;-74
2023/06/02 05:58:48;;;;;;;19.83;3.00;;;19.10;99.90;;;;;;4975555;28;20552;-73
2023/06/02 06:01:19;;;;;;;16.05;2.85;;;19.10;99.90;;;;;;4973902;28;20224;-74
2023/06/02 06:03:50;;;;;;;14.95;2.88;;;19.10;99.90;;;;;;4967445;28;20200;-74
2023/06/02 06:06:22;;;;;;;13.50;2.25;;;19.10;99.90;;;;;;4971989;28;20214;-73
2023/06/02 06:08:53;;;;;;;15.48;2.88;;;19.10;99.90;;;;;;4967295;28;20719;-75
2023/06/02 06:11:25;;;;;;;17.20;3.10;;;19.00;99.90;;;;;;4976485;28;20200;-74
2023/06/02 06:14:00;;;;;;;15.02;2.65;;;19.00;99.90;;;;;;4990461;28;20200;-73
2023/06/02 06:16:31;;;;;;;14.07;3.10;;;19.00;99.90;;;;;;4976947;28;20188;-74
2023/06/02 06:19:02;;;;;;;18.08;3.38;;;19.00;99.90;;;;;;4962415;28;20569;-74
2023/06/02 06:21:34;;;;;;;17.63;3.45;;;19.00;99.90;;;;;;4975300;28;20251;-74
2023/06/02 06:24:06;;;;;;;19.70;3.20;;;19.00;99.90;;;;;;4975220;28;20197;-74
2023/06/02 06:26:37;;;;;;;17.60;3.63;;;18.90;99.90;;;;;;4974508;28;20568;-74
2023/06/02 06:29:10;;;;;;;14.20;2.60;;;18.80;99.90;;;;;;4971272;28;20199;-74
2023/06/02 06:31:41;;;;;;;11.80;2.42;;;18.80;99.90;;;;;;4975377;28;20283;-74
2023/06/02 06:34:12;;;;;;;11.25;2.40;;;18.80;99.90;;;;;;4973578;28;20207;-73
2023/06/02 06:36:43;;;;;;;12.40;2.47;;;18.70;99.90;;;;;;4974080;28;20196;-74
2023/06/02 06:39:14;;;;;;;11.70;2.42;;;18.70;99.90;;;;;;4973544;28;20652;-74
2023/06/02 06:41:46;;;;;;;16.00;2.80;;;18.60;99.90;;;;;;4975380;28;20196;-74
2023/06/02 06:44:19;;;;;;;12.20;2.55;;;18.50;99.90;;;;;;4974880;28;20188;-74
2023/06/02 06:46:50;;;;;;;11.52;2.50;;;18.50;99.90;;;;;;4973558;28;20219;-74
2023/06/02 06:49:21;;;;;;;13.98;2.90;;;18.50;99.90;;;;;;4973266;28;20197;-74
2023/06/02 06:51:52;;;;;;;15.30;2.75;;;18.50;99.90;;;;;;4974563;28;20556;-74
2023/06/02 06:54:23;;;;;;;12.80;2.50;;;18.40;99.90;;;;;;4965945;28;20208;-74
2023/06/02 06:56:54;;;;;;;12.35;2.90;;;18.40;99.90;;;;;;4970312;28;20226;-74
2023/06/02 06:59:27;;;;;;;14.98;2.97;;;18.30;99.90;;;;;;4973165;28;20250;-74
2023/06/02 07:01:58;;;;;;;14.00;3.10;;;18.30;99.90;;;;;;4973095;28;20215;-74
2023/06/02 07:04:29;;;;;;;14.07;2.80;;;18.20;99.90;;;;;;4971578;28;20223;-74
2023/06/02 07:07:00;;;;;;;13.55;2.88;;;18.20;99.90;;;;;;4972466;28;20275;-74
2023/06/02 07:09:32;;;;;;;18.80;3.28;;;18.10;99.90;;;;;;4970611;28;20204;-73
2023/06/02 07:12:03;;;;;;;9.65;2.40;;;18.10;99.90;;;;;;4973302;28;20660;-74
2023/06/02 07:14:36;;;;;;;14.10;2.58;;;18.10;99.90;;;;;;4971179;28;20206;-73
2023/06/02 07:17:07;;;;;;;11.80;3.05;;;18.00;99.90;;;;;;4965770;28;20220;-74
2023/06/02 07:19:38;;;;;;;13.77;3.17;;;18.00;99.90;;;;;;4982945;28;20204;-74
2023/06/02 07:22:10;;;;;;;11.98;3.67;;;18.00;99.90;;;;;;4976633;28;20204;-73
2023/06/02 07:24:41;;;;;;;17.02;4.15;;;18.00;99.90;;;;;;4970242;28;20200;-73
2023/06/02 07:27:12;;;;;;;19.13;3.40;;;17.90;99.90;;;;;;4969614;28;20207;-73
2023/06/02 07:29:45;;;;;;;15.27;3.55;;;17.90;99.90;;;;;;4974020;28;20199;-73
2023/06/02 07:32:16;;;;;;;11.77;3.38;;;17.80;99.90;;;;;;4972669;28;20220;-74
2023/06/02 07:34:47;;;;;;;16.40;4.40;;;17.80;99.90;;;;;;4972973;28;20240;-74
2023/06/02 07:37:18;;;;;;;17.42;4.88;;;17.80;99.90;;;;;;4970661;28;20218;-74
2023/06/02 07:39:50;;;;;;;25.70;8.18;;;17.80;99.90;;;;;;4971303;28;20196;-73
2023/06/02 07:42:22;;;;;;;16.90;6.15;;;17.70;99.90;;;;;;4969112;28;20204;-73
2023/06/02 07:44:56;;;;;;;13.80;4.80;;;17.70;99.90;;;;;;4971842;28;20196;-74
2023/06/02 07:47:27;;;;;;;18.23;7.25;;;17.70;99.90;;;;;;4976319;28;20258;-74
2023/06/02 07:49:58;;;;;;;17.27;4.97;;;17.60;99.90;;;;;;4976854;28;20219;-74
2023/06/02 07:52:29;;;;;;;16.77;4.47;;;17.60;99.90;;;;;;4972296;28;20223;-74
2023/06/02 07:55:00;;;;;;;15.43;3.80;;;17.60;99.90;;;;;;4976093;28;20208;-74
2023/06/02 07:57:31;;;;;;;13.20;3.55;;;17.50;99.90;;;;;;4974776;28;20219;-74
2023/06/02 08:00:16;;;;;;;16.50;3.58;;;17.50;99.90;;;;;;4975623;28;20240;-74
2023/06/02 08:02:47;;;;;;;15.55;4.03;;;17.40;99.90;;;;;;4972673;28;20200;-74
2023/06/02 08:05:19;;;;;;;12.80;4.85;;;17.40;99.90;;;;;;4976553;28;20200;-74
2023/06/02 08:07:50;;;;;;;16.35;4.13;;;17.40;99.90;;;;;;4966587;28;20200;-74
2023/06/02 08:10:21;;;;;;;17.58;4.25;;;17.40;99.90;;;;;;4977215;28;20771;-74
2023/06/02 08:12:52;;;;;;;14.23;4.03;;;17.30;99.90;;;;;;4975362;28;20200;-74
2023/06/02 08:15:25;;;;;;;15.00;3.83;;;17.30;99.90;;;;;;4977365;28;20200;-73
2023/06/02 08:17:56;;;;;;;11.35;3.80;;;17.30;99.90;;;;;;4968360;28;20220;-73
2023/06/02 08:20:27;;;;;;;14.65;4.28;;;17.30;99.90;;;;;;4976717;28;20204;-74
2023/06/02 08:22:59;;;;;;;13.70;4.47;;;17.30;99.90;;;;;;4977305;28;20571;-74
2023/06/02 08:25:30;;;;;;;12.35;3.70;;;17.20;99.90;;;;;;4977168;28;20215;-73
2023/06/02 08:28:05;;;;;;;13.25;4.15;;;17.20;99.90;;;;;;4974035;28;20283;-74
2023/06/02 08:30:39;;;;;;;17.95;4.45;;;17.20;99.90;;;;;;4978276;28;20286;-74
2023/06/02 08:33:11;;;;;;;13.43;4.25;;;17.20;99.90;;;;;;4977508;28;20536;-74
2023/06/02 08:35:42;;;;;;;13.23;3.92;;;17.20;99.90;;;;;;4973838;28;20207;-73
2023/06/02 08:38:16;;;;;;;14.70;4.40;;;17.10;99.90;;;;;;4975249;28;20226;-73
2023/06/02 08:40:50;;;;;;;15.07;4.30;;;17.10;99.90;;;;;;4974388;28;20299;-74
2023/06/02 08:43:21;;;;;;;14.70;4.18;;;17.10;99.90;;;;;;4972055;28;20210;-74
2023/06/02 08:45:54;;;;;;;11.80;3.90;;;17.10;99.90;;;;;;4971542;28;20204;-74
2023/06/02 08:48:26;;;;;;;11.88;3.75;;;17.00;99.90;;;;;;4966597;28;20192;-73
2023/06/02 08:50:58;;;;;;;12.38;4.40;;;17.00;99.90;;;;;;4976641;28;20208;-74
2023/06/02 08:53:30;;;;;;;16.40;6.53;;;16.90;99.90;;;;;;4975214;28;20207;-74
2023/06/02 08:56:01;;;;;;;35.10;17.48;;;16.90;99.90;;;;;;4974631;28;20200;-73
2023/06/02 08:58:34;;;;;;;42.30;20.23;;;16.90;99.90;;;;;;4972424;28;20671;-74
2023/06/02 09:01:09;;;;;;;32.45;18.08;;;16.90;99.90;;;;;;4976343;28;20220;-74
2023/06/02 09:03:40;;;;;;;28.50;14.82;;;16.80;99.90;;;;;;4974520;28;20195;-74
2023/06/02 09:06:28;;;;;;;30.60;12.60;;;16.80;99.90;;;;;;4975213;28;20287;-74
2023/06/02 09:09:01;;;;;;;23.15;10.15;;;16.80;99.90;;;;;;4976285;28;20208;-74
2023/06/02 09:11:33;;;;;;;19.70;8.18;;;16.80;99.90;;;;;;4975506;28;20562;-73
2023/06/02 09:14:19;;;;;;;19.33;7.10;;;16.80;99.90;;;;;;4976197;28;20562;-74
2023/06/02 09:16:52;;;;;;;16.73;6.55;;;16.80;99.90;;;;;;4972670;28;20247;-74
2023/06/02 09:19:23;;;;;;;13.48;5.90;;;16.70;99.90;;;;;;4971141;28;20691;-73
2023/06/02 09:21:54;;;;;;;17.27;5.85;;;16.70;99.90;;;;;;4976144;28;20203;-73
2023/06/02 09:24:34;;;;;;;14.50;5.38;;;16.70;99.90;;;;;;4972029;28;20278;-74
2023/06/02 09:27:07;;;;;;;12.35;5.32;;;16.70;99.90;;;;;;4974595;28;20562;-73
2023/06/02 09:29:43;;;;;;;14.05;5.78;;;16.70;99.90;;;;;;4975300;28;20239;-73
2023/06/02 09:32:19;;;;;;;15.15;4.93;;;16.70;99.90;;;;;;4972619;28;20690;-73
2023/06/02 09:34:51;;;;;;;11.60;4.03;;;16.70;99.90;;;;;;4975275;28;20218;-74
2023/06/02 09:37:23;;;;;;;14.75;5.53;;;16.60;99.90;;;;;;4975344;28;20555;-74
2023/06/02 09:39:57;;;;;;;20.52;6.75;;;16.70;99.90;;;;;;4973550;28;20536;-73
2023/06/02 09:42:28;;;;;;;24.23;7.30;;;16.70;99.90;;;;;;4975883;28;20268;-73
2023/06/02 09:45:10;;;;;;;16.88;6.28;;;16.70;99.90;;;;;;4975374;28;20201;-74
2023/06/02 09:47:44;;;;;;;24.08;6.30;;;16.60;99.90;;;;;;4972865;28;20203;-74
2023/06/02 09:50:34;;;;;;;19.05;6.35;;;16.60;99.90;;;;;;4975564;28;20283;-74
2023/06/02 09:53:11;;;;;;;22.25;6.20;;;16.50;99.90;;;;;;4974185;28;20197;-73
2023/06/02 09:55:42;;;;;;;16.73;5.82;;;16.50;99.90;;;;;;4974173;28;20208;-75
2023/06/02 09:58:13;;;;;;;19.65;6.15;;;16.50;99.90;;;;;;4975505;28;20220;-75
2023/06/02 10:00:46;;;;;;;17.85;5.78;;;16.50;99.90;;;;;;4975229;28;20318;-74
2023/06/02 10:03:20;;;;;;;13.95;5.60;;;16.50;99.90;;;;;;4973541;28;20201;-74
2023/06/02 10:06:00;;;;;;;16.20;5.85;;;16.40;99.90;;;;;;4970981;28;20196;-73
2023/06/02 10:08:48;;;;;;;16.52;6.00;;;16.40;99.90;;;;;;4974270;28;20264;-74
2023/06/02 10:11:27;;;;;;;17.67;6.03;;;16.40;99.90;;;;;;4978649;28;20204;-73
2023/06/02 10:14:12;;;;;;;12.45;5.85;;;16.40;99.90;;;;;;4976700;28;20200;-74
2023/06/02 10:16:56;;;;;;;14.07;5.80;;;16.30;99.90;;;;;;4969408;28;20210;-74
2023/06/02 10:19:52;;;;;;;14.93;6.00;;;16.40;99.90;;;;;;4975380;28;20216;-73
2023/06/02 10:22:55;;;;;;;19.08;7.20;;;16.40;99.90;;;;;;4973262;28;20205;-73
2023/06/02 10:25:35;;;;;;;14.27;6.10;;;16.40;99.90;;;;;;4973782;28;20208;-73
2023/06/02 10:28:08;;;;;;;17.23;6.00;;;16.40;99.90;;;;;;4973051;28;20211;-74
2023/06/02 10:30:39;;;;;;;17.08;6.20;;;16.30;99.90;;;;;;4974191;28;20233;-74
2023/06/02 10:33:10;;;;;;;22.58;6.78;;;16.30;99.90;;;;;;4974847;28;20196;-74
2023/06/02 10:36:02;;;;;;;22.00;6.63;;;16.30;99.90;;;;;;4973802;28;20207;-73
2023/06/02 10:38:34;;;;;;;19.52;6.00;;;16.30;99.90;;;;;;4974223;28;20220;-75
2023/06/02 10:41:05;;;;;;;14.60;5.93;;;16.30;99.90;;;;;;4985746;28;20214;-73
2023/06/02 10:43:37;;;;;;;17.30;6.05;;;16.30;99.90;;;;;;4976088;28;20280;-73
2023/06/02 10:46:22;;;;;;;14.95;5.97;;;16.30;99.90;;;;;;4973891;28;20243;-74
2023/06/02 10:48:53;;;;;;;17.52;5.35;;;16.40;99.90;;;;;;4963879;28;20223;-74
2023/06/02 10:51:28;;;;;;;21.33;5.50;;;16.30;99.90;;;;;;4973643;28;20200;-73
2023/06/02 10:54:18;;;;;;;20.92;5.63;;;16.40;99.90;;;;;;4972523;28;20203;-73
2023/06/02 10:56:51;;;;;;;18.52;5.95;;;16.30;99.90;;;;;;4970314;28;20204;-74
2023/06/02 10:59:38;;;;;;;14.25;5.93;;;16.30;99.90;;;;;;4972090;28;20298;-74
2023/06/02 11:02:09;;;;;;;14.88;5.50;;;16.30;99.90;;;;;;4969216;28;21773;-73
2023/06/02 11:04:43;;;;;;;13.43;5.40;;;16.30;99.90;;;;;;4971858;28;20399;-74
2023/06/02 11:07:26;;;;;;;15.25;5.80;;;16.30;99.90;;;;;;4971248;28;20287;-74
2023/06/02 11:09:59;;;;;;;11.73;4.75;;;16.30;99.90;;;;;;4971609;28;20211;-73
2023/06/02 11:13:08;;;;;;;13.20;5.63;;;16.30;99.90;;;;;;4971454;28;20223;-73
2023/06/02 11:15:39;;;;;;;11.35;4.85;;;16.30;99.90;;;;;;4976325;28;20245;-74
2023/06/02 11:18:44;;;;;;;11.98;4.75;;;16.30;99.90;;;;;;4991166;28;20200;-73
2023/06/02 11:21:22;;;;;;;12.05;4.80;;;16.30;99.90;;;;;;4971802;28;20298;-73
2023/06/02 11:23:55;;;;;;;16.10;5.50;;;16.40;99.90;;;;;;4963529;28;20258;-73
2023/06/02 11:26:27;;;;;;;17.67;6.10;;;16.30;99.90;;;;;;4978735;28;20204;-73
2023/06/02 11:28:58;;;;;;;12.43;5.10;;;16.40;99.90;;;;;;4976607;28;20200;-73
2023/06/02 11:31:29;;;;;;;15.15;5.60;;;16.40;99.90;;;;;;4978991;28;20196;-74
2023/06/02 11:34:02;;;;;;;11.63;5.35;;;16.40;99.90;;;;;;4980789;28;20210;-73
2023/06/02 11:36:38;;;;;;;16.50;5.22;;;16.40;99.90;;;;;;4979671;28;20634;-74
2023/06/02 11:39:13;;;;;;;14.00;5.10;;;16.50;99.90;;;;;;4993321;28;20219;-74
2023/06/02 11:41:59;;;;;;;12.27;5.00;;;16.50;99.90;;;;;;4976374;28;20714;-73
2023/06/02 11:44:30;;;;;;;13.60;4.55;;;16.50;99.90;;;;;;4988861;28;20254;-74
2023/06/02 11:47:02;;;;;;;14.70;4.75;;;16.50;99.90;;;;;;4980982;28;20196;-74
2023/06/02 11:49:40;;;;;;;12.30;4.65;;;16.40;99.90;;;;;;4981062;28;20188;-74
2023/06/02 11:52:15;;;;;;;13.57;4.60;;;16.40;99.90;;;;;;4980482;28;20188;-73
2023/06/02 11:55:00;;;;;;;14.18;4.40;;;16.40;99.90;;;;;;4995025;28;20198;-74
2023/06/02 11:57:34;;;;;;;21.63;4.93;;;16.40;99.90;;;;;;5000140;28;20249;-73
2023/06/02 12:00:19;;;;;;;15.43;4.47;;;16.40;99.90;;;;;;4999660;28;20613;-73
2023/06/02 12:02:57;;;;;;;14.13;4.22;;;16.30;99.90;;;;;;4961271;28;20731;-73
2023/06/02 12:05:35;;;;;;;13.93;4.28;;;16.30;99.90;;;;;;4961176;28;20275;-72
2023/06/02 12:08:14;;;;;;;16.98;4.72;;;16.30;99.90;;;;;;4960319;28;20204;-73
2023/06/02 12:10:47;;;;;;;10.60;4.97;;;16.30;99.90;;;;;;4961249;28;20192;-74
2023/06/02 12:13:28;;;;;;;11.82;4.85;;;16.20;99.90;;;;;;4961191;28;20196;-73
2023/06/02 12:16:01;;;;;;;13.80;4.95;;;16.30;99.90;;;;;;4961318;28;20555;-73
2023/06/02 12:18:34;;;;;;;12.20;4.30;;;16.20;99.90;;;;;;4972536;28;20223;-73
2023/06/02 12:21:05;;;;;;;14.20;4.30;;;16.20;99.90;;;;;;4980284;28;20276;-73
2023/06/02 12:23:49;;;;;;;13.32;4.65;;;16.20;99.90;;;;;;4980456;28;20200;-72
2023/06/02 12:26:23;;;;;;;9.00;3.83;;;16.20;99.90;;;;;;4980456;28;20239;-72
2023/06/02 12:28:56;;;;;;;10.93;4.45;;;16.20;99.90;;;;;;4980462;28;20191;-73
2023/06/02 12:31:27;;;;;;;10.82;4.65;;;16.20;99.90;;;;;;4993512;28;20196;-72
2023/06/02 12:33:58;;;;;;;13.23;4.53;;;16.20;99.90;;;;;;4996601;28;20202;-72
2023/06/02 12:36:30;;;;;;;11.25;4.53;;;16.20;99.90;;;;;;4977587;28;20208;-72
2023/06/02 12:39:03;;;;;;;13.98;5.13;;;16.20;99.90;;;;;;4977211;28;20242;-72
2023/06/02 12:41:36;;;;;;;13.85;4.78;;;16.20;99.90;;;;;;4977190;28;20203;-72
2023/06/02 12:44:07;;;;;;;13.68;4.80;;;16.20;99.90;;;;;;4977034;28;20192;-72
2023/06/02 12:46:40;;;;;;;9.75;4.18;;;16.30;99.90;;;;;;4977160;28;20199;-72
2023/06/02 12:49:12;;;;;;;14.07;4.70;;;16.30;99.90;;;;;;4976913;28;20247;-72
2023/06/02 12:51:43;;;;;;;17.02;4.53;;;16.30;99.90;;;;;;4976930;28;20263;-73
2023/06/02 12:54:14;;;;;;;11.77;4.82;;;16.30;99.90;;;;;;4977087;28;20196;-72
2023/06/02 12:56:47;;;;;;;8.90;4.13;;;16.30;99.90;;;;;;4977038;28;20562;-72
2023/06/02 12:59:19;;;;;;;11.77;4.45;;;16.30;99.90;;;;;;4976787;28;20251;-73
2023/06/02 13:01:50;;;;;;;11.40;4.03;;;16.30;99.90;;;;;;4976822;28;20189;-74
2023/06/02 13:04:21;;;;;;;12.30;4.20;;;16.30;99.90;;;;;;4976986;28;20648;-74
2023/06/02 13:06:53;;;;;;;12.25;4.30;;;16.30;99.90;;;;;;4976233;28;20203;-74